Time;durP1;ratioP1;P1;durP2;ratioP2;P2;SDS_P1;SDS_P2;PMS_P1;PMS_P2;Temp;Humidity;BMP_temperature;BMP_pressure;BME280_temperature;BME280_humidity;BME280_pressure;Samples;Min_cycle;Max_cycle;Signal;HPM_P1;HPM_P2
2021/03/11 00:00:47;;;;;;;22.40;8.47;;;;;;;-1.92;46.06;101279.02;125607;1098;104233;-78
2021/03/11 00:03:18;;;;;;;20.05;7.90;;;;;;;-2.00;46.45;101293.69;125660;1099;104179;-78
2021/03/11 00:05:47;;;;;;;19.57;7.57;;;;;;;-2.08;46.54;101293.72;125618;1099;104252;-77
2021/03/11 00:08:17;;;;;;;21.40;7.70;;;;;;;-2.13;46.25;101288.12;125667;1099;104178;-78
2021/03/11 00:10:45;;;;;;;19.33;7.57;;;;;;;-2.13;45.32;101293.26;125633;1099;104172;-77
2021/03/11 00:13:15;;;;;;;22.10;7.70;;;;;;;-2.10;46.19;101290.06;125629;1099;104261;-79
2021/03/11 00:15:44;;;;;;;22.13;8.27;;;;;;;-2.06;46.25;101285.38;125635;1099;104172;-78
2021/03/11 00:18:15;;;;;;;16.23;6.00;;;;;;;-1.99;46.70;101287.80;125665;1099;104185;-78
2021/03/11 00:20:44;;;;;;;19.10;7.47;;;;;;;-2.04;45.30;101270.09;125669;1097;104227;-78
2021/03/11 00:23:13;;;;;;;19.63;7.90;;;;;;;-2.10;46.10;101266.92;125653;1099;104329;-78
2021/03/11 00:25:42;;;;;;;19.37;7.30;;;;;;;-2.11;45.59;101270.27;125625;1099;104169;-78
2021/03/11 00:28:11;;;;;;;22.90;8.33;;;;;;;-2.11;46.07;101267.70;125658;1099;104296;-78
2021/03/11 00:30:40;;;;;;;16.50;6.67;;;;;;;-2.09;45.18;101271.31;125649;1099;105178;-78
2021/03/11 00:33:09;;;;;;;16.70;6.83;;;;;;;-2.16;46.04;101267.24;125640;1099;104169;-78
2021/03/11 00:35:38;;;;;;;23.27;8.77;;;;;;;-2.24;46.25;101257.88;125591;1098;104175;-78
2021/03/11 00:38:07;;;;;;;19.97;7.47;;;;;;;-2.20;46.24;101266.05;125605;1098;104175;-79
2021/03/11 00:40:37;;;;;;;20.63;7.97;;;;;;;-2.15;46.18;101262.99;125661;1099;104197;-78
2021/03/11 00:43:06;;;;;;;16.30;5.80;;;;;;;-2.12;46.50;101258.16;125640;1099;104216;-78
2021/03/11 00:45:35;;;;;;;21.40;7.37;;;;;;;-2.15;46.19;101269.07;125605;1099;104182;-78
2021/03/11 00:48:05;;;;;;;20.83;7.17;;;;;;;-2.17;45.92;101257.70;125693;1099;104516;-77
2021/03/11 00:50:35;;;;;;;20.47;7.50;;;;;;;-2.21;45.50;101253.93;125633;1098;104339;-78
2021/03/11 00:53:04;;;;;;;15.85;6.15;;;;;;;-2.21;46.52;101251.36;125652;1099;104213;-78
2021/03/11 00:55:34;;;;;;;18.63;7.17;;;;;;;-2.25;46.00;101251.80;125595;1098;104175;-78
2021/03/11 00:58:04;;;;;;;20.93;6.90;;;;;;;-2.25;45.54;101245.77;125623;1099;104169;-78
2021/03/11 01:00:33;;;;;;;22.07;7.70;;;;;;;-2.23;46.38;101244.23;125630;1099;104312;-78
2021/03/11 01:03:14;;;;;;;20.67;7.80;;;;;;;-2.21;46.39;101235.94;125579;1099;104169;-78
2021/03/11 01:05:47;;;;;;;18.10;7.10;;;;;;;-2.14;46.71;101233.96;125629;1099;104287;-78
2021/03/11 01:08:26;;;;;;;22.13;7.77;;;;;;;-2.09;46.45;101240.45;125628;1099;112236;-78
2021/03/11 01:10:55;;;;;;;19.23;7.40;;;;;;;-2.10;46.29;101236.05;125602;1099;104159;-78
2021/03/11 01:13:25;;;;;;;19.20;7.40;;;;;;;-2.13;45.52;101234.11;125549;1099;104249;-78
2021/03/11 01:15:56;;;;;;;18.90;7.37;;;;;;;-2.14;45.76;101236.53;125631;1099;104169;-78
2021/03/11 01:18:25;;;;;;;17.17;6.80;;;;;;;-2.20;45.68;101240.33;125547;1099;104207;-78
2021/03/11 01:20:55;;;;;;;17.87;6.63;;;;;;;-2.24;46.54;101243.34;125621;1099;104643;-78
2021/03/11 01:23:24;;;;;;;20.87;7.57;;;;;;;-2.26;46.35;101247.44;125607;1099;104226;-78
2021/03/11 01:25:53;;;;;;;19.03;6.87;;;;;;;-2.25;45.66;101241.52;125612;1099;104175;-78
2021/03/11 01:28:22;;;;;;;19.23;6.73;;;;;;;-2.26;45.65;101244.87;125620;1099;104210;-78
2021/03/11 01:30:51;;;;;;;18.70;7.00;;;;;;;-2.28;46.68;101233.50;125573;1099;104245;-78
2021/03/11 01:33:20;;;;;;;20.80;7.37;;;;;;;-2.28;46.22;101230.93;125606;1098;104679;-78
2021/03/11 01:35:49;;;;;;;18.17;7.20;;;;;;;-2.32;46.78;101239.12;125658;1100;104300;-78
2021/03/11 01:38:18;;;;;;;22.50;7.50;;;;;;;-2.33;46.65;101237.30;125579;1099;104362;-78
2021/03/11 01:40:47;;;;;;;22.67;7.47;;;;;;;-2.30;46.60;101237.59;125606;1099;104175;-78
2021/03/11 01:43:16;;;;;;;19.87;7.87;;;;;;;-2.34;46.56;101240.61;125606;1099;104272;-78
2021/03/11 01:45:45;;;;;;;18.57;6.77;;;;;;;-2.37;46.07;101245.45;125651;1099;104169;-78
2021/03/11 01:48:14;;;;;;;21.77;7.80;;;;;;;-2.40;45.89;101245.14;125630;1099;104175;-78
2021/03/11 01:50:43;;;;;;;17.53;6.47;;;;;;;-2.40;45.90;101238.36;125569;1098;105168;-78
2021/03/11 01:53:12;;;;;;;20.70;7.90;;;;;;;-2.40;46.16;101235.80;125637;1097;104165;-78
2021/03/11 01:55:42;;;;;;;22.13;8.30;;;;;;;-2.37;46.94;101235.16;125656;1099;104224;-78
2021/03/11 01:58:12;;;;;;;23.20;7.90;;;;;;;-2.36;46.30;101227.61;125609;1099;104208;-78
2021/03/11 02:00:41;;;;;;;19.33;7.67;;;;;;;-2.31;46.78;101227.16;125619;1099;104200;-78
2021/03/11 02:03:10;;;;;;;18.33;7.23;;;;;;;-2.31;46.20;101235.77;125635;1097;104171;-78
2021/03/11 02:05:39;;;;;;;20.33;7.60;;;;;;;-2.32;46.74;101244.27;125642;1099;104975;-78
2021/03/11 02:08:08;;;;;;;19.73;7.07;;;;;;;-2.39;46.54;101241.83;125607;1099;104169;-77
2021/03/11 02:10:37;;;;;;;19.93;7.47;;;;;;;-2.46;46.63;101239.39;125587;1099;104172;-78
2021/03/11 02:13:25;;;;;;;20.50;7.70;;;;;;;-2.48;46.97;101248.62;125642;1097;104245;-78
2021/03/11 02:16:01;;;;;;;20.37;8.10;;;;;;;-2.51;46.73;101246.64;125617;1099;104319;-78
2021/03/11 02:18:35;;;;;;;23.87;8.00;;;;;;;-2.51;46.22;101245.75;125595;1099;104357;-78
2021/03/11 02:21:07;;;;;;;20.07;7.43;;;;;;;-2.54;46.85;101247.27;125651;1099;104172;-78
2021/03/11 02:24:06;;;;;;;17.63;6.47;;;;;;;-2.56;46.41;101248.76;125648;1099;104728;-78
2021/03/11 02:26:58;;;;;;;20.47;7.57;;;;;;;-2.61;46.31;101251.64;125691;1099;104245;-76
2021/03/11 02:29:29;;;;;;;20.47;8.40;;;;;;;-2.64;46.99;101241.95;125592;1099;102354;-77
2021/03/11 02:32:01;;;;;;;18.07;7.00;;;;;;;-2.64;46.16;101247.09;125588;1099;104239;-78
2021/03/11 02:34:35;;;;;;;17.43;6.40;;;;;;;-2.65;46.33;101241.80;125666;1099;104819;-78
2021/03/11 02:37:08;;;;;;;21.93;7.93;;;;;;;-2.65;46.50;101242.73;125635;1098;104214;-77
2021/03/11 02:39:41;;;;;;;23.27;8.53;;;;;;;-2.63;46.32;101245.45;125627;1099;104682;-77
2021/03/11 02:42:11;;;;;;;19.17;7.17;;;;;;;-2.64;46.44;101257.37;125614;1099;104178;-78
2021/03/11 02:44:41;;;;;;;23.97;8.20;;;;;;;-2.70;46.38;101249.05;125592;1099;104181;-77
2021/03/11 02:47:10;;;;;;;21.37;7.03;;;;;;;-2.72;46.88;101250.56;125590;1097;104237;-77
2021/03/11 02:49:40;;;;;;;23.33;8.70;;;;;;;-2.75;47.16;101250.26;125592;1099;104297;-77
2021/03/11 02:52:10;;;;;;;22.70;8.47;;;;;;;-2.72;46.49;101258.27;125661;1099;104267;-77
2021/03/11 02:54:41;;;;;;;26.13;7.97;;;;;;;-2.76;47.13;101262.20;125673;1099;104306;-78
2021/03/11 02:57:12;;;;;;;19.95;7.55;;;;;;;-2.78;47.46;101260.22;125623;1097;104246;-77
2021/03/11 02:59:42;;;;;;;19.63;7.17;;;;;;;-2.81;47.43;101260.81;125605;1099;104201;-77
2021/03/11 03:02:12;;;;;;;23.90;8.67;;;;;;;-2.85;47.42;101253.57;125631;1099;104253;-77
2021/03/11 03:04:46;;;;;;;28.70;9.07;;;;;;;-2.83;46.67;101256.30;125628;1097;104290;-77
2021/03/11 03:07:20;;;;;;;22.98;9.08;;;;;;;-2.82;46.71;101258.09;125609;1099;104225;-77
2021/03/11 03:09:50;;;;;;;16.93;6.57;;;;;;;-2.78;47.51;101255.98;125571;1099;104591;-78
2021/03/11 03:12:20;;;;;;;20.17;7.40;;;;;;;-2.75;46.78;101268.24;125623;1099;104303;-78
2021/03/11 03:14:51;;;;;;;23.50;8.07;;;;;;;-2.77;47.34;101262.95;125606;1099;104293;-77
2021/03/11 03:17:22;;;;;;;25.87;9.70;;;;;;;-2.76;46.87;101263.84;125639;1099;104169;-77
2021/03/11 03:19:52;;;;;;;24.53;8.13;;;;;;;-2.74;47.19;101262.36;125600;1099;104175;-77
2021/03/11 03:22:22;;;;;;;24.47;9.20;;;;;;;-2.72;47.56;101263.41;125576;1096;104220;-77
2021/03/11 03:24:51;;;;;;;23.00;8.53;;;;;;;-2.73;47.53;101257.37;125582;1099;104175;-78
2021/03/11 03:27:20;;;;;;;26.53;9.40;;;;;;;-2.77;47.72;101259.48;125575;1099;104178;-77
2021/03/11 03:29:49;;;;;;;24.70;9.37;;;;;;;-2.79;47.49;101263.53;125612;1097;104178;-77
2021/03/11 03:32:18;;;;;;;28.70;10.27;;;;;;;-2.85;47.08;101257.78;125569;1099;104268;-77
2021/03/11 03:34:47;;;;;;;30.53;12.17;;;;;;;-2.90;47.71;101265.95;125582;1097;104191;-77
2021/03/11 03:37:17;;;;;;;21.97;7.77;;;;;;;-2.95;47.24;101267.12;125595;1099;105248;-77
2021/03/11 03:39:45;;;;;;;26.05;11.20;;;;;;;-2.99;47.72;101262.45;125591;1099;104168;-77
2021/03/11 03:42:15;;;;;;;26.77;9.83;;;;;;;-3.02;47.40;101271.47;125612;1099;104168;-78
2021/03/11 03:44:46;;;;;;;30.53;9.90;;;;;;;-3.04;48.04;101275.55;125518;1099;104178;-77
2021/03/11 03:47:16;;;;;;;31.57;12.23;;;;;;;-3.05;47.20;101274.66;125548;1099;104274;-77
2021/03/11 03:49:46;;;;;;;34.80;14.27;;;;;;;-3.06;47.77;101283.10;125577;1099;104181;-77
2021/03/11 03:52:15;;;;;;;32.57;14.70;;;;;;;-3.04;47.57;101291.86;125609;1099;104166;-79
2021/03/11 03:54:47;;;;;;;34.67;15.10;;;;;;;-3.05;48.01;101277.23;125620;1099;104194;-79
2021/03/11 03:57:19;;;;;;;29.43;12.40;;;;;;;-3.05;48.34;101282.36;125612;1099;104160;-79
2021/03/11 03:59:51;;;;;;;33.67;13.10;;;;;;;-3.03;48.52;101283.42;125564;1099;104168;-78
2021/03/11 04:02:23;;;;;;;35.90;13.13;;;;;;;-3.03;47.53;101292.79;125636;1099;104459;-78
2021/03/11 04:04:56;;;;;;;185.10;26.97;;;;;;;-3.04;47.63;101306.37;125597;1099;104175;-78
2021/03/11 04:07:27;;;;;;;39.03;17.35;;;;;;;-3.13;48.18;101303.75;125643;1098;104175;-78
2021/03/11 04:09:59;;;;;;;38.63;16.20;;;;;;;-3.19;47.49;101304.05;125697;1099;104267;-78
2021/03/11 04:12:28;;;;;;;36.40;17.07;;;;;;;-3.29;47.84;101307.34;125598;1097;104207;-78
2021/03/11 04:14:58;;;;;;;36.53;16.47;;;;;;;-3.33;48.40;101306.86;125601;1099;104166;-78
2021/03/11 04:17:28;;;;;;;37.60;14.70;;;;;;;-3.37;47.99;101300.48;125640;1099;104640;-78
2021/03/11 04:20:02;;;;;;;41.40;15.80;;;;;;;-3.45;47.99;101302.25;125586;1099;104294;-78
2021/03/11 04:22:32;;;;;;;30.77;12.88;;;;;;;-3.50;47.91;101308.56;125615;1099;104173;-78
2021/03/11 04:25:01;;;;;;;29.63;12.60;;;;;;;-3.55;48.37;101313.95;125562;1099;104172;-78
2021/03/11 04:27:31;;;;;;;30.17;11.83;;;;;;;-3.61;48.37;101320.27;125626;1099;104284;-78
2021/03/11 04:30:01;;;;;;;24.90;10.33;;;;;;;-3.64;48.26;101319.05;125574;1097;104294;-78
2021/03/11 04:32:31;;;;;;;37.30;11.87;;;;;;;-3.68;48.28;101316.90;125645;1099;106797;-78
2021/03/11 04:35:00;;;;;;;26.97;11.30;;;;;;;-3.72;48.53;101331.06;125627;1097;104303;-78
2021/03/11 04:37:29;;;;;;;31.20;12.70;;;;;;;-3.76;48.22;101326.34;125598;1097;104171;-78
2021/03/11 04:39:58;;;;;;;27.90;11.47;;;;;;;-3.77;48.40;101326.19;125615;1099;104181;-78
2021/03/11 04:42:27;;;;;;;33.60;13.83;;;;;;;-3.80;48.46;101330.25;125626;1099;104179;-77
2021/03/11 04:44:57;;;;;;;35.13;14.63;;;;;;;-3.77;48.42;101326.19;125624;1099;104169;-78
2021/03/11 04:47:27;;;;;;;33.63;13.30;;;;;;;-3.75;48.59;101329.84;125605;1099;104290;-78
2021/03/11 04:49:56;;;;;;;28.80;12.80;;;;;;;-3.73;48.59;101334.37;125567;1099;104344;-78
2021/03/11 04:52:26;;;;;;;34.07;14.17;;;;;;;-3.70;48.91;101337.26;125585;1096;104332;-78
2021/03/11 04:54:55;;;;;;;42.63;12.97;;;;;;;-3.67;48.57;101335.02;125604;1099;104330;-78
2021/03/11 04:57:24;;;;;;;36.87;13.03;;;;;;;-3.61;48.97;101343.36;125695;1099;104191;-79
2021/03/11 04:59:56;;;;;;;32.80;12.10;;;;;;;-3.56;49.04;101342.95;125718;1099;104278;-78
2021/03/11 05:02:29;;;;;;;30.90;12.23;;;;;;;-3.56;49.02;101353.20;125630;1099;104172;-79
2021/03/11 05:05:01;;;;;;;26.57;12.05;;;;;;;-3.56;48.64;101355.77;125677;1099;104166;-79
2021/03/11 05:07:29;;;;;;;30.03;11.57;;;;;;;-3.55;48.48;101357.57;125711;1099;104175;-79
2021/03/11 05:09:58;;;;;;;34.17;13.17;;;;;;;-3.54;48.90;101359.40;125742;1099;104166;-79
2021/03/11 05:12:27;;;;;;;31.87;11.33;;;;;;;-3.55;48.56;101358.50;125666;1099;104171;-78
2021/03/11 05:14:56;;;;;;;28.60;11.03;;;;;;;-3.58;48.81;101364.94;125687;1099;104238;-79
2021/03/11 05:17:25;;;;;;;34.40;13.77;;;;;;;-3.58;48.76;101364.94;125744;1099;105328;-79
2021/03/11 05:19:54;;;;;;;29.20;12.10;;;;;;;-3.59;48.91;101352.88;125706;1099;104172;-79
2021/03/11 05:22:24;;;;;;;34.93;12.50;;;;;;;-3.57;49.04;101359.97;125668;1098;104242;-79
2021/03/11 05:24:53;;;;;;;28.23;11.83;;;;;;;-3.54;48.86;101361.97;125700;1099;104163;-79
2021/03/11 05:27:22;;;;;;;23.93;9.53;;;;;;;-3.54;48.72;101367.09;125698;1099;104291;-79
2021/03/11 05:29:51;;;;;;;28.60;12.13;;;;;;;-3.57;49.21;101371.91;125730;1099;104589;-79
2021/03/11 05:32:20;;;;;;;33.07;11.50;;;;;;;-3.55;48.98;101372.97;125656;1099;104232;-79
2021/03/11 05:34:49;;;;;;;27.27;10.73;;;;;;;-3.51;49.00;101377.69;125695;1099;104342;-78
2021/03/11 05:37:18;;;;;;;27.47;10.10;;;;;;;-3.39;49.43;101385.78;125646;1099;104239;-79
2021/03/11 05:39:49;;;;;;;28.77;11.40;;;;;;;-3.32;49.01;101390.79;125665;1099;104322;-79
2021/03/11 05:42:20;;;;;;;24.67;9.97;;;;;;;-3.23;49.35;101389.19;125624;1099;103002;-79
2021/03/11 05:44:49;;;;;;;27.93;10.97;;;;;;;-3.16;49.19;101394.22;125682;1099;105342;-79
2021/03/11 05:47:22;;;;;;;25.23;10.33;;;;;;;-3.08;49.06;101395.03;125619;1099;104504;-79
2021/03/11 05:49:52;;;;;;;25.75;10.65;;;;;;;-3.04;49.53;101396.24;125569;1099;104306;-79
2021/03/11 05:52:21;;;;;;;30.47;11.10;;;;;;;-2.96;49.55;101403.08;125616;1099;104322;-79
2021/03/11 05:54:50;;;;;;;23.87;10.17;;;;;;;-2.90;49.47;101409.78;125668;1099;104420;-79
2021/03/11 05:57:22;;;;;;;28.97;11.63;;;;;;;-2.79;48.99;101410.89;125642;1099;104284;-79
2021/03/11 05:59:55;;;;;;;23.73;10.37;;;;;;;-2.74;48.96;101411.38;125727;1099;104204;-79
2021/03/11 06:02:28;;;;;;;27.57;11.30;;;;;;;-2.71;48.95;101415.16;125494;1099;103056;-79
2021/03/11 06:04:57;;;;;;;23.97;10.90;;;;;;;-2.63;49.16;101418.51;125493;1098;104300;-79
2021/03/11 06:07:29;;;;;;;27.33;11.27;;;;;;;-2.47;49.18;101414.95;125686;1099;104172;-79
2021/03/11 06:10:03;;;;;;;26.33;10.57;;;;;;;-2.32;50.22;101419.08;125713;1099;104179;-79
2021/03/11 06:12:32;;;;;;;27.90;11.70;;;;;;;-2.25;50.08;101421.50;125783;1099;104172;-79
2021/03/11 06:15:07;;;;;;;30.67;12.60;;;;;;;-2.14;49.29;101416.55;125680;1099;104171;-79
2021/03/11 06:17:39;;;;;;;23.60;10.60;;;;;;;-2.04;50.02;101415.05;125668;1099;104780;-79
2021/03/11 06:20:10;;;;;;;27.03;10.97;;;;;;;-1.94;50.45;101424.59;125754;1099;104174;-79
2021/03/11 06:22:39;;;;;;;26.93;11.53;;;;;;;-1.87;49.17;101428.67;125769;1096;104166;-78
2021/03/11 06:25:10;;;;;;;30.40;12.50;;;;;;;-1.71;49.46;101420.84;125701;1099;104079;-79
2021/03/11 06:27:39;;;;;;;24.90;9.60;;;;;;;-1.54;49.42;101428.56;125644;1099;104175;-79
2021/03/11 06:30:28;;;;;;;24.60;9.40;;;;;;;-1.41;49.22;101430.67;125656;1099;104294;-80
2021/03/11 06:32:58;;;;;;;23.17;9.00;;;;;;;-1.39;49.08;101425.67;125667;1098;104156;-80
2021/03/11 06:35:27;;;;;;;18.93;7.60;;;;;;;-1.43;48.78;101426.11;125814;1099;103997;-80
2021/03/11 06:37:58;;;;;;;23.80;9.63;;;;;;;-1.43;48.64;101428.69;125721;1099;101939;-80
2021/03/11 06:40:30;;;;;;;31.07;10.90;;;;;;;-1.31;48.84;101423.09;125956;1099;104166;-79
2021/03/11 06:43:14;;;;;;;23.33;9.10;;;;;;;-1.19;49.02;101417.31;125699;1099;104168;-79
2021/03/11 06:45:48;;;;;;;27.73;10.37;;;;;;;-1.11;49.20;101406.08;125742;1097;104050;-80
2021/03/11 06:48:25;;;;;;;28.40;9.93;;;;;;;-0.94;49.63;101413.76;125788;1099;104181;-80
2021/03/11 06:50:56;;;;;;;23.30;10.20;;;;;;;-0.76;50.21;101414.62;125960;1099;104168;-82
2021/03/11 06:53:25;;;;;;;23.80;8.60;;;;;;;-0.59;49.97;101417.91;125834;1099;102879;-81
2021/03/11 06:56:16;;;;;;;25.60;10.83;;;;;;;-0.42;49.65;101419.47;125861;1099;104166;-80
2021/03/11 06:58:58;;;;;;;22.93;9.60;;;;;;;-0.28;49.93;101413.97;125773;1099;104242;-80
2021/03/11 07:01:32;;;;;;;25.47;9.60;;;;;;;-0.11;50.06;101423.28;125707;1099;104248;-79
2021/03/11 07:04:02;;;;;;;20.40;8.50;;;;;;;0.06;49.41;101421.34;125694;1099;104270;-79
2021/03/11 07:06:33;;;;;;;24.83;10.07;;;;;;;0.18;49.11;101425.05;125751;1099;104344;-80
2021/03/11 07:09:04;;;;;;;22.87;10.53;;;;;;;0.28;49.34;101419.97;125721;1099;104239;-79
2021/03/11 07:11:34;;;;;;;29.07;9.63;;;;;;;0.34;48.91;101429.93;125635;1099;104217;-79
2021/03/11 07:14:04;;;;;;;22.83;9.90;;;;;;;0.40;49.49;101427.91;125586;1099;104278;-79
2021/03/11 07:16:35;;;;;;;24.90;10.23;;;;;;;0.52;49.67;101436.78;125723;1099;104178;-79
2021/03/11 07:19:16;;;;;;;28.10;10.23;;;;;;;0.62;49.14;101435.92;125646;1099;104214;-78
2021/03/11 07:21:47;;;;;;;23.63;9.73;;;;;;;0.78;49.15;101439.89;125666;1099;104189;-79
2021/03/11 07:24:35;;;;;;;22.07;9.20;;;;;;;0.86;48.91;101433.76;125689;1099;104182;-80
2021/03/11 07:27:08;;;;;;;19.10;7.70;;;;;;;0.92;48.15;101439.47;125668;1099;104677;-78
2021/03/11 07:29:37;;;;;;;23.67;9.87;;;;;;;0.91;48.46;101436.75;125830;1099;104165;-79
2021/03/11 07:32:08;;;;;;;21.40;8.50;;;;;;;0.96;48.33;101441.54;125727;1099;104175;-79
2021/03/11 07:34:38;;;;;;;26.93;9.50;;;;;;;1.04;48.47;101434.47;125793;1099;104161;-78
2021/03/11 07:37:08;;;;;;;21.33;8.23;;;;;;;1.19;48.17;101445.27;125747;1099;104362;-79
2021/03/11 07:39:43;;;;;;;21.37;9.03;;;;;;;1.26;48.47;101439.84;125712;1099;104163;-79
2021/03/11 07:42:15;;;;;;;22.37;8.93;;;;;;;1.30;48.47;101433.29;125775;1098;103085;-79
2021/03/11 07:44:45;;;;;;;24.47;9.37;;;;;;;1.36;48.31;101432.14;125693;1097;104166;-78
2021/03/11 07:47:15;;;;;;;25.60;10.37;;;;;;;1.38;48.45;101430.58;125627;1099;104175;-79
2021/03/11 07:49:45;;;;;;;27.23;9.73;;;;;;;1.51;48.58;101423.89;125687;1099;104194;-80
2021/03/11 07:52:16;;;;;;;19.43;7.97;;;;;;;1.59;48.13;101416.03;125702;1099;104162;-80
2021/03/11 07:54:48;;;;;;;18.77;7.40;;;;;;;1.63;47.80;101406.84;125693;1099;104275;-80
2021/03/11 07:57:17;;;;;;;26.17;9.37;;;;;;;1.62;47.45;101399.84;125732;1099;104197;-79
2021/03/11 07:59:52;;;;;;;24.40;8.35;;;;;;;1.55;47.31;101406.17;125638;1099;104344;-80
2021/03/11 08:02:21;;;;;;;20.47;7.97;;;;;;;1.56;47.32;101401.94;125763;1099;104789;-79
2021/03/11 08:04:51;;;;;;;18.00;6.90;;;;;;;1.68;47.42;101400.37;125747;1099;104245;-79
2021/03/11 08:07:22;;;;;;;22.17;6.80;;;;;;;1.79;47.44;101399.63;125677;1099;104175;-79
2021/03/11 08:10:18;;;;;;;19.20;6.00;;;;;;;1.92;46.65;101403.26;125584;1099;104181;-77
2021/03/11 08:12:53;;;;;;;19.67;6.57;;;;;;;1.80;45.92;101406.59;125572;1098;104255;-78
2021/03/11 08:15:36;;;;;;;17.87;6.97;;;;;;;1.80;46.56;101408.28;125563;1099;105474;-77
2021/03/11 08:18:28;;;;;;;18.77;6.53;;;;;;;1.81;45.52;101410.11;125505;1098;104181;-77
2021/03/11 08:20:57;;;;;;;16.77;5.90;;;;;;;1.81;44.93;101399.76;125544;1099;104147;-77
2021/03/11 08:23:30;;;;;;;18.20;6.50;;;;;;;1.86;46.26;101400.15;125670;1099;104175;-78
2021/03/11 08:26:00;;;;;;;20.40;6.50;;;;;;;1.86;44.28;101408.81;125592;1099;105470;-78
2021/03/11 08:28:41;;;;;;;18.60;7.37;;;;;;;1.91;46.02;101381.63;125650;1099;104178;-78
2021/03/11 08:31:40;;;;;;;19.93;7.80;;;;;;;2.09;46.39;101392.64;125616;1099;104175;-78
2021/03/11 08:34:38;;;;;;;19.43;6.43;;;;;;;2.03;43.99;101391.22;125262;1099;104175;-78
2021/03/11 08:37:19;;;;;;;25.57;7.70;;;;;;;2.07;45.72;101389.02;125601;1099;119409;-79
2021/03/11 08:39:49;;;;;;;18.93;6.90;;;;;;;2.16;45.20;101387.17;125602;1099;104166;-78
2021/03/11 08:42:44;;;;;;;15.77;6.03;;;;;;;2.33;45.88;101380.80;125702;1099;104297;-79
2021/03/11 08:45:34;;;;;;;16.85;5.95;;;;;;;2.42;45.42;101396.22;125596;1099;104153;-79
2021/03/11 08:48:17;;;;;;;19.37;6.93;;;;;;;2.35;45.44;101391.30;125579;1099;104197;-79
2021/03/11 08:50:48;;;;;;;18.93;6.87;;;;;;;2.38;44.41;101394.14;125677;1099;104373;-79
2021/03/11 08:53:45;;;;;;;17.47;6.37;;;;;;;2.39;43.72;101387.30;125590;1099;104172;-78
2021/03/11 08:56:42;;;;;;;16.00;6.33;;;;;;;2.48;44.14;101395.83;125596;1099;104183;-79
2021/03/11 08:59:18;;;;;;;18.45;6.05;;;;;;;2.47;44.26;101400.08;125612;1099;104172;-78
2021/03/11 09:01:49;;;;;;;14.73;6.10;;;;;;;2.55;44.40;101400.71;125684;1098;104246;-78
2021/03/11 09:04:42;;;;;;;18.10;5.97;;;;;;;2.67;44.23;101393.95;125570;1099;104203;-78
2021/03/11 09:07:29;;;;;;;18.17;6.13;;;;;;;2.82;43.84;101399.48;125551;1099;104644;-77
2021/03/11 09:09:58;;;;;;;17.00;5.93;;;;;;;2.90;44.01;101399.17;125649;1099;104169;-77
2021/03/11 09:12:43;;;;;;;14.73;5.23;;;;;;;2.94;43.19;101401.25;125515;1099;104165;-77
2021/03/11 09:15:12;;;;;;;;;;;;;;;2.71;42.67;101408.05;125613;1099;104178;-78
2021/03/11 09:17:43;;;;;;;18.63;6.37;;;;;;;2.62;43.06;101404.73;125585;1099;104328;-78
2021/03/11 09:20:16;;;;;;;15.23;5.43;;;;;;;2.73;43.76;101408.17;125522;1098;104270;-77
2021/03/11 09:22:49;;;;;;;17.10;6.47;;;;;;;2.76;42.24;101404.17;125651;1099;104290;-78
2021/03/11 09:25:21;;;;;;;13.90;5.97;;;;;;;2.69;41.20;101417.39;125627;1099;104290;-79
2021/03/11 09:27:55;;;;;;;13.93;5.93;;;;;;;2.61;41.61;101416.77;125614;1099;104207;-79
2021/03/11 09:30:29;;;;;;;14.70;5.77;;;;;;;2.61;42.44;101415.87;125656;1099;104261;-79
2021/03/11 09:33:07;;;;;;;11.17;4.90;;;;;;;2.76;41.90;101417.13;125629;1099;104207;-77
2021/03/11 09:35:41;;;;;;;16.43;6.30;;;;;;;2.68;42.81;101418.16;125615;1099;104179;-78
2021/03/11 09:38:12;;;;;;;16.07;6.47;;;;;;;2.71;43.36;101418.41;125631;1099;104290;-78
2021/03/11 09:40:58;;;;;;;23.93;7.07;;;;;;;2.88;43.27;101414.61;125659;1099;104173;-77
2021/03/11 09:43:33;;;;;;;17.40;7.60;;;;;;;3.03;42.41;101412.36;125713;1099;104463;-78
2021/03/11 09:46:11;;;;;;;16.73;6.80;;;;;;;3.09;43.09;101418.05;125695;1099;105673;-79
2021/03/11 09:48:44;;;;;;;16.17;6.50;;;;;;;3.21;42.92;101415.50;125834;1099;104163;-78
2021/03/11 09:51:17;;;;;;;18.53;6.47;;;;;;;3.31;43.04;101419.76;125732;1099;104335;-80
2021/03/11 09:53:49;;;;;;;15.53;6.37;;;;;;;3.35;42.52;101401.97;125670;1099;104239;-79
2021/03/11 09:56:20;;;;;;;16.97;6.40;;;;;;;3.39;41.55;101408.29;125619;1099;104325;-79
2021/03/11 09:58:54;;;;;;;18.07;5.60;;;;;;;3.28;42.43;101401.36;125895;1099;104157;-80
2021/03/11 10:01:30;;;;;;;18.67;6.37;;;;;;;3.36;42.00;101408.05;125750;1099;104591;-80
2021/03/11 10:04:11;;;;;;;14.70;6.10;;;;;;;3.43;41.77;101399.98;125841;1099;104187;-80
2021/03/11 10:06:50;;;;;;;17.83;5.50;;;;;;;3.54;42.30;101395.63;125579;1099;104197;-79
2021/03/11 10:09:23;;;;;;;20.53;6.50;;;;;;;3.67;42.45;101400.97;125585;1099;118608;-78
2021/03/11 10:12:00;;;;;;;16.10;6.80;;;;;;;3.76;42.32;101401.69;125558;1099;104239;-78
2021/03/11 10:15:07;;;;;;;16.43;6.60;;;;;;;3.90;41.91;101397.56;125601;1099;105125;-78
2021/03/11 10:17:36;;;;;;;15.20;6.20;;;;;;;4.00;42.06;101393.97;125560;1099;104209;-78
2021/03/11 10:20:24;;;;;;;11.23;4.97;;;;;;;4.02;40.62;101391.48;125652;1099;104149;-78
2021/03/11 10:23:13;;;;;;;15.67;5.77;;;;;;;4.02;41.19;101388.89;125631;1099;104172;-77
2021/03/11 10:26:07;;;;;;;15.13;5.80;;;;;;;4.04;41.66;101385.63;125597;1099;104331;-76
2021/03/11 10:28:58;;;;;;;13.03;5.55;;;;;;;4.06;41.69;101386.64;125655;1099;104150;-79
2021/03/11 10:31:28;;;;;;;16.40;5.87;;;;;;;4.12;41.72;101381.02;125654;1099;104169;-77
2021/03/11 10:34:09;;;;;;;20.07;6.30;;;;;;;4.12;41.04;101375.83;125643;1099;104242;-78
2021/03/11 10:36:38;;;;;;;13.37;5.63;;;;;;;4.05;40.80;101377.06;125579;1099;104175;-77
2021/03/11 10:39:11;;;;;;;17.73;5.97;;;;;;;3.99;40.40;101371.41;125548;1099;104166;-77
2021/03/11 10:41:58;;;;;;;14.03;5.90;;;;;;;3.78;39.70;101370.66;125722;1099;104181;-79
2021/03/11 10:44:28;;;;;;;11.60;5.33;;;;;;;3.65;40.05;101362.73;125757;1099;104210;-78
2021/03/11 10:47:16;;;;;;;14.40;5.77;;;;;;;3.67;39.79;101358.55;125719;1099;104236;-80
2021/03/11 10:49:53;;;;;;;17.70;6.20;;;;;;;3.78;40.16;101355.97;125639;1099;104322;-78
2021/03/11 10:52:23;;;;;;;14.50;5.83;;;;;;;3.93;40.04;101353.65;125571;1099;104232;-78
2021/03/11 10:54:53;;;;;;;15.80;6.50;;;;;;;4.07;40.13;101354.70;125533;1099;104168;-77
2021/03/11 10:57:26;;;;;;;14.87;5.57;;;;;;;4.12;39.67;101355.94;125601;1098;104873;-78
2021/03/11 11:00:02;;;;;;;14.93;6.00;;;;;;;4.11;39.18;101366.21;125606;1099;104207;-78
2021/03/11 11:02:32;;;;;;;17.00;6.03;;;;;;;4.14;39.59;101348.27;125792;1099;104317;-77
2021/03/11 11:05:02;;;;;;;15.07;6.10;;;;;;;4.15;39.37;101344.88;125472;1099;104229;-78
2021/03/11 11:07:33;;;;;;;14.10;6.13;;;;;;;4.15;38.95;101344.88;125539;1098;104261;-77
2021/03/11 11:10:05;;;;;;;17.57;6.17;;;;;;;4.16;39.99;101341.51;125544;1099;104602;-78
2021/03/11 11:12:35;;;;;;;17.23;6.10;;;;;;;4.17;39.95;101332.91;125597;1099;104216;-79
2021/03/11 11:15:06;;;;;;;17.97;6.70;;;;;;;4.22;39.92;101344.53;125787;1099;104162;-78
2021/03/11 11:17:36;;;;;;;19.87;6.73;;;;;;;4.20;39.58;101337.44;125726;1098;104175;-78
2021/03/11 11:20:08;;;;;;;16.55;7.30;;;;;;;4.19;38.80;101333.02;125600;1099;105319;-78
2021/03/11 11:22:39;;;;;;;20.00;7.23;;;;;;;4.22;39.62;101330.65;125630;1099;104182;-79
2021/03/11 11:25:10;;;;;;;14.00;5.73;;;;;;;4.27;38.40;101330.21;125664;1099;104191;-80
2021/03/11 11:27:40;;;;;;;18.07;6.73;;;;;;;4.28;39.08;101333.70;125686;1099;104214;-78